Airfield :
LOGIN :

Register | Disclaimer

   EN    FR    IT 

 










Legend :    VFR   Marginal VFR   IFR   Intensive IFR   Very Intensive IFR
Visi :
Ceiling :
>= 8 km
>= 3000ft
5 to 8 km
1000 to 3000 ft
1500m to 5 km
500 to 1000 ft
800 to 1500m
200 to 500 ft
< 800m
< 200 ft
Symbols :   Thunderstorms  Fog  Heavy snow  Heavy precipitations  Wind > 20 kt
SIGMETs :     Misc.  Thunderstorms  Icing  Turbulence  Mountain Waves  Volcanic Ashes






- Airport Elevation : 33 ft
- IATA code : MHZ


EGUN - RAF Mildenhall

CURRENT METAR :
  • 132156Z AUTO 24005KT 9999 CLR 10/10 A2981 RMK AO2 SLP098 T00980098 $

EXPIRED METARs :
  • 132056Z AUTO 23007KT 9999 CLR 11/10 A2978 RMK AO2 SLP088 T01070099 $
  • 131956Z 24008KT 9999 CLR 11/10 A2975 RMK AO2A SLPNO T01140096 $
  • 131856Z 23011KT 9999 SCT033 13/10 A2972 RMK AO2A PRESRR SLP067 T01250102 $

TAF AMD TAF EGUN
Valid from the 13 at 17:00 until the 14 at 18:00 UTC


131750Z 1317/1418 24010G20KT 9999 SCT025 QNH2947INS
BECMG 1319/1320 25012KT 9999 SCT015 QNH2967INS
BECMG 1401/1402 21006KT 8000 BR SCT010 QNH2984INS
BECMG 1406/1407 12009KT 8000 -SHRA BKN015 QNH2968INS
BECMG 1413/1414 10015G20KT 8000 -SHRA OVC015 QNH2949INS TX17/1413Z TN09/1403Z LAST NO AMDS AFT 1318 NEXT 1404



MET'MAP, your aeronautical weather chart ! - Copyright ORBIFLY December 2007 - Disclaimer

ORBIFLY MET'MAP TEAM :

Programming & Development : Alexandra Zaïnal
Concept & Development : Baudouin d'Aumeries
Co-Development & Prog : Marc-Olivier Méhu
Technical & hardware support : Manuel Goepfert

Contact : metmap@orbifly.com




SOURCES & CREDITS :

   NOAA